Time;durP1;ratioP1;P1;durP2;ratioP2;P2;SDS_P1;SDS_P2;PMS_P1;PMS_P2;Temp;Humidity;BMP_temperature;BMP_pressure;BME280_temperature;BME280_humidity;BME280_pressure;Samples;Min_cycle;Max_cycle;Signal;HPM_P1;HPM_P2
2023/03/29 08:03:16;;;;;;;5.27;4.07;;;;;;;10.74;98.44;100517.69;5029716;27;20599;-74
2023/03/29 08:05:42;;;;;;;4.23;3.77;;;;;;;10.87;98.95;100528.84;5025158;28;20214;-73
2023/03/29 08:08:08;;;;;;;3.93;3.17;;;;;;;11.01;99.24;100526.16;5027614;28;20182;-74
2023/03/29 08:10:36;;;;;;;3.50;3.20;;;;;;;11.11;99.07;100527.81;5033521;28;20206;-74
2023/03/29 08:13:06;;;;;;;3.17;2.87;;;;;;;11.25;98.80;100522.53;5032725;28;20204;-74
2023/03/29 08:15:32;;;;;;;4.17;3.40;;;;;;;11.39;97.78;100521.56;5028916;28;20195;-75
2023/03/29 08:17:58;;;;;;;3.57;2.90;;;;;;;11.50;97.80;100519.72;5033865;28;20183;-74
2023/03/29 08:20:23;;;;;;;3.33;3.03;;;;;;;11.63;97.42;100523.06;5032393;28;20691;-74
2023/03/29 08:22:48;;;;;;;3.10;2.67;;;;;;;11.78;97.11;100524.63;5043489;28;20945;-75
2023/03/29 08:25:14;;;;;;;5.50;3.00;;;;;;;11.93;96.37;100523.63;5026897;28;20178;-75
2023/03/29 08:27:39;;;;;;;4.43;3.10;;;;;;;12.04;95.61;100523.53;5030116;28;20840;-77
2023/03/29 08:30:06;;;;;;;3.47;3.17;;;;;;;12.20;95.01;100525.06;5030221;28;20717;-75
2023/03/29 08:32:32;;;;;;;3.87;3.17;;;;;;;12.41;94.32;100507.53;5035857;28;20588;-74
2023/03/29 08:34:57;;;;;;;4.50;2.90;;;;;;;12.61;93.13;100493.44;5033224;28;20188;-76
2023/03/29 08:37:24;;;;;;;2.90;2.70;;;;;;;12.82;92.23;100487.06;5048609;28;20276;-75
2023/03/29 08:39:50;;;;;;;3.13;2.93;;;;;;;13.03;90.66;100487.59;5025374;28;20186;-74
2023/03/29 08:42:43;;;;;;;3.10;2.80;;;;;;;13.31;89.72;100497.56;5036450;28;20214;-76
2023/03/29 08:45:17;;;;;;;4.90;2.83;;;;;;;13.62;87.74;100484.88;5039274;28;20238;-73
2023/03/29 08:47:43;;;;;;;3.77;2.93;;;;;;;13.81;86.93;100490.59;5037193;28;20262;-72
2023/03/29 08:50:10;;;;;;;2.90;2.60;;;;;;;14.02;85.65;100486.72;5038494;28;20662;-75
2023/03/29 08:52:50;;;;;;;2.63;2.30;;;;;;;14.32;84.16;100479.16;5030826;28;20222;-71
2023/03/29 08:55:39;;;;;;;3.53;2.53;;;;;;;14.60;82.65;100475.09;5032609;28;20189;-72
2023/03/29 08:58:11;;;;;;;2.60;2.40;;;;;;;14.86;81.49;100469.31;5024728;28;20603;-73
2023/03/29 09:00:41;;;;;;;3.10;2.40;;;;;;;15.16;80.27;100473.81;5028662;28;20329;-73
2023/03/29 09:03:18;;;;;;;2.83;2.40;;;;;;;15.52;79.21;100466.78;5045495;28;20260;-74
2023/03/29 09:05:47;;;;;;;2.83;2.50;;;;;;;15.85;77.57;100465.94;5052771;28;20182;-74
2023/03/29 09:08:16;;;;;;;2.33;2.13;;;;;;;16.12;76.46;100458.22;5050165;28;20199;-71
2023/03/29 09:10:46;;;;;;;2.70;2.13;;;;;;;16.38;75.74;100460.06;5057220;28;20709;-72
2023/03/29 09:13:22;;;;;;;2.30;2.00;;;;;;;16.63;74.32;100453.22;5053650;28;20205;-71
2023/03/29 09:16:21;;;;;;;3.00;2.40;;;;;;;16.63;73.93;100459.28;5054059;28;20187;-71
2023/03/29 09:18:52;;;;;;;3.87;2.10;;;;;;;16.56;74.36;100460.41;5036375;28;20182;-71
2023/03/29 09:21:59;;;;;;;1.90;1.80;;;;;;;16.52;74.24;100451.78;5038722;28;20226;-70
2023/03/29 09:24:33;;;;;;;2.20;1.77;;;;;;;16.52;74.25;100458.78;5046642;28;20202;-74
2023/03/29 09:27:01;;;;;;;2.23;1.90;;;;;;;16.49;74.30;100446.63;5039044;28;20722;-74
2023/03/29 09:29:48;;;;;;;2.83;2.00;;;;;;;16.67;73.43;100444.34;5056424;28;20611;-72
2023/03/29 09:32:21;;;;;;;1.70;1.60;;;;;;;16.80;71.94;100447.44;5035077;28;20218;-72
2023/03/29 09:35:19;;;;;;;2.10;1.90;;;;;;;16.97;70.24;100455.63;5056529;28;20310;-72
2023/03/29 09:37:46;;;;;;;2.27;1.70;;;;;;;17.17;68.71;100459.31;5042498;28;20253;-72
2023/03/29 09:40:30;;;;;;;2.00;1.83;;;;;;;17.34;66.58;100454.38;5039458;28;20266;-72
2023/03/29 09:42:57;;;;;;;2.00;1.80;;;;;;;17.33;66.88;100452.66;5036004;28;20337;-72
2023/03/29 09:45:22;;;;;;;1.53;1.43;;;;;;;17.40;66.30;100452.47;5041300;28;20190;-72
2023/03/29 09:47:56;;;;;;;2.33;1.80;;;;;;;17.52;65.94;100450.28;5048944;28;20337;-72
2023/03/29 09:50:32;;;;;;;1.87;1.67;;;;;;;17.71;65.23;100448.75;5050250;28;20270;-71
2023/03/29 09:52:58;;;;;;;2.50;1.50;;;;;;;17.90;64.59;100452.41;5033389;28;20218;-72
2023/03/29 09:55:29;;;;;;;1.53;1.43;;;;;;;18.06;63.99;100442.25;5033763;28;20183;-72
2023/03/29 09:57:59;;;;;;;1.73;1.50;;;;;;;18.23;64.22;100444.22;5033041;28;20689;-73
2023/03/29 10:00:24;;;;;;;2.43;1.60;;;;;;;18.38;63.80;100449.75;5035475;28;20183;-72
2023/03/29 10:02:56;;;;;;;2.07;1.60;;;;;;;18.55;63.67;100438.63;5031257;28;20210;-72
2023/03/29 10:05:25;;;;;;;3.00;1.70;;;;;;;18.83;63.05;100440.13;5037433;28;20191;-72
2023/03/29 10:07:53;;;;;;;2.30;1.50;;;;;;;19.06;62.18;100441.00;5038734;28;20745;-72
2023/03/29 10:10:23;;;;;;;5.40;1.43;;;;;;;19.21;61.73;100436.88;5042624;28;20190;-71
2023/03/29 10:12:51;;;;;;;1.60;1.50;;;;;;;19.30;61.86;100442.56;5037097;28;20729;-72
2023/03/29 10:15:18;;;;;;;2.87;1.50;;;;;;;19.33;60.81;100436.31;5031571;28;20195;-71
2023/03/29 10:17:44;;;;;;;2.43;1.50;;;;;;;19.25;61.31;100441.06;5037776;28;20187;-71
2023/03/29 10:20:15;;;;;;;1.73;1.47;;;;;;;19.16;61.67;100434.44;5036103;28;20174;-72
2023/03/29 10:22:47;;;;;;;1.73;1.43;;;;;;;19.10;62.30;100424.19;5034200;28;20202;-71
2023/03/29 10:25:16;;;;;;;1.90;1.23;;;;;;;19.06;62.33;100420.84;5031639;28;20241;-72
2023/03/29 10:27:44;;;;;;;1.67;1.47;;;;;;;19.05;62.47;100413.91;5031248;28;20186;-71
2023/03/29 10:30:18;;;;;;;1.43;1.30;;;;;;;19.12;62.50;100414.50;5049172;28;20195;-72
2023/03/29 10:32:43;;;;;;;2.77;1.50;;;;;;;19.19;62.28;100408.91;5032198;28;20424;-71
2023/03/29 10:35:21;;;;;;;1.20;1.10;;;;;;;19.23;62.33;100403.53;5029230;28;20282;-71
2023/03/29 10:37:52;;;;;;;2.07;1.50;;;;;;;19.13;61.80;100401.34;5033953;28;20197;-72
2023/03/29 10:40:43;;;;;;;1.60;1.10;;;;;;;19.06;61.69;100392.00;5029688;28;20253;-70
2023/03/29 10:43:13;;;;;;;2.17;1.47;;;;;;;19.13;61.66;100395.22;5032444;28;20222;-70
2023/03/29 10:45:40;;;;;;;2.03;1.60;;;;;;;19.14;61.71;100397.75;5039860;28;20700;-72
2023/03/29 10:48:10;;;;;;;1.57;1.37;;;;;;;19.19;62.05;100393.19;5028284;28;20199;-72
2023/03/29 10:50:36;;;;;;;1.87;1.30;;;;;;;19.34;61.78;100396.06;5037416;28;20202;-72
2023/03/29 10:53:16;;;;;;;3.30;1.40;;;;;;;19.53;61.56;100384.75;5031674;28;20206;-71
2023/03/29 10:56:07;;;;;;;1.63;1.53;;;;;;;19.58;60.99;100393.28;5040154;28;20197;-72
2023/03/29 10:59:02;;;;;;;3.17;1.97;;;;;;;19.63;60.80;100391.28;5030486;28;20673;-72
2023/03/29 11:02:02;;;;;;;5.10;4.33;;;;;;;19.66;60.18;100391.13;5033388;28;20653;-72
2023/03/29 11:04:33;;;;;;;7.63;6.93;;;;;;;19.77;60.29;100388.88;5038290;28;20274;-71
2023/03/29 11:07:18;;;;;;;9.40;8.53;;;;;;;19.72;59.06;100392.63;5042604;28;20211;-72
2023/03/29 11:09:52;;;;;;;11.23;10.07;;;;;;;19.76;59.16;100396.84;5032567;28;20234;-72
2023/03/29 11:12:22;;;;;;;9.30;8.40;;;;;;;19.84;59.68;100393.84;5034648;28;20771;-72
2023/03/29 11:15:20;;;;;;;7.53;6.83;;;;;;;19.94;59.50;100387.28;5033409;28;20210;-73
2023/03/29 11:18:04;;;;;;;5.13;4.63;;;;;;;20.06;59.40;100393.75;5012241;28;20282;-71
2023/03/29 11:20:51;;;;;;;4.43;3.47;;;;;;;20.03;59.55;100391.25;5028365;28;20244;-72
2023/03/29 11:23:44;;;;;;;2.90;2.70;;;;;;;19.94;59.39;100389.91;5032564;28;20667;-71
2023/03/29 11:26:22;;;;;;;3.27;2.23;;;;;;;19.95;59.93;100387.22;5031744;28;20241;-72
2023/03/29 11:29:21;;;;;;;2.83;1.90;;;;;;;20.08;59.77;100376.13;5031317;28;20194;-71
2023/03/29 11:32:09;;;;;;;3.27;2.07;;;;;;;20.13;58.70;100375.91;5033347;28;20884;-72
2023/03/29 11:35:00;;;;;;;2.33;1.70;;;;;;;20.05;58.73;100379.72;5034145;28;20184;-72
2023/03/29 11:37:40;;;;;;;2.23;1.57;;;;;;;20.01;59.36;100370.31;5034766;28;20262;-71
2023/03/29 11:40:39;;;;;;;2.10;1.50;;;;;;;19.97;59.00;100370.50;5031120;28;20195;-71
2023/03/29 11:43:14;;;;;;;3.30;1.57;;;;;;;19.75;59.25;100377.59;5029899;28;20222;-70
2023/03/29 11:45:52;;;;;;;2.07;1.50;;;;;;;19.60;60.00;100378.28;5028683;28;20182;-71
2023/03/29 11:48:24;;;;;;;1.60;1.50;;;;;;;19.53;59.91;100375.09;5030775;28;20191;-71
2023/03/29 11:50:57;;;;;;;1.80;1.30;;;;;;;19.46;60.02;100369.25;5032203;28;20295;-71
2023/03/29 11:53:31;;;;;;;1.63;1.50;;;;;;;19.45;60.31;100364.94;5027053;28;20179;-71
2023/03/29 11:56:06;;;;;;;3.13;1.40;;;;;;;19.40;59.76;100372.19;5030134;28;20191;-71
2023/03/29 11:58:36;;;;;;;2.13;1.20;;;;;;;19.45;59.96;100374.59;5031541;28;20264;-71
2023/03/29 12:01:11;;;;;;;2.27;1.90;;;;;;;19.56;59.57;100376.75;5037072;28;20266;-71
2023/03/29 12:03:54;;;;;;;3.37;1.70;;;;;;;19.59;59.23;100366.94;5027293;28;22575;-70
2023/03/29 12:06:27;;;;;;;1.93;1.43;;;;;;;19.48;59.08;100372.66;5031692;28;20214;-71
2023/03/29 12:09:04;;;;;;;3.53;1.73;;;;;;;19.34;59.05;100367.19;5044288;28;20532;-71
2023/03/29 12:11:35;;;;;;;2.40;1.43;;;;;;;19.29;59.17;100379.66;5038497;28;20228;-71
2023/03/29 12:14:47;;;;;;;3.00;1.60;;;;;;;19.19;58.88;100369.56;5029766;28;20245;-73
2023/03/29 12:17:20;;;;;;;1.73;1.37;;;;;;;19.13;59.56;100371.59;5004090;28;20565;-70
2023/03/29 12:19:56;;;;;;;3.03;1.57;;;;;;;19.21;60.18;100384.38;4998789;28;20208;-72
2023/03/29 12:22:21;;;;;;;1.97;1.47;;;;;;;19.18;60.48;100388.00;5021727;28;20227;-71
2023/03/29 12:24:51;;;;;;;2.60;1.50;;;;;;;19.13;60.47;100380.34;5036719;28;20195;-73
2023/03/29 12:27:23;;;;;;;2.50;1.40;;;;;;;19.17;60.97;100387.13;5032718;28;20191;-70
2023/03/29 12:30:18;;;;;;;4.77;2.20;;;;;;;19.19;61.58;100376.59;5035725;28;20272;-72
2023/03/29 12:33:11;;;;;;;4.60;1.70;;;;;;;19.24;61.55;100386.88;5028807;28;20211;-73
2023/03/29 12:35:36;;;;;;;4.43;1.60;;;;;;;19.28;61.68;100391.09;5037467;28;20207;-73
2023/03/29 12:38:21;;;;;;;1.73;1.53;;;;;;;19.37;61.86;100390.69;5036690;28;21253;-71
2023/03/29 12:40:54;;;;;;;2.67;1.50;;;;;;;19.51;62.21;100384.81;5036984;28;20183;-71
2023/03/29 12:43:25;;;;;;;2.40;1.47;;;;;;;19.60;62.17;100397.53;5041929;28;20643;-72
2023/03/29 12:45:55;;;;;;;1.67;1.57;;;;;;;19.65;62.38;100397.31;5039792;28;20206;-71
2023/03/29 12:48:26;;;;;;;1.70;1.40;;;;;;;19.68;62.74;100388.44;5051459;28;20572;-74
2023/03/29 12:51:01;;;;;;;1.93;1.40;;;;;;;19.73;62.53;100392.59;5054926;28;20183;-73
2023/03/29 12:53:39;;;;;;;5.07;1.80;;;;;;;19.86;62.58;100398.09;5046789;28;20646;-73
2023/03/29 12:56:07;;;;;;;2.17;1.67;;;;;;;19.71;62.29;100393.56;5047243;28;20215;-72
2023/03/29 12:58:38;;;;;;;3.73;2.20;;;;;;;19.36;62.78;100388.13;5046641;28;20281;-72
2023/03/29 13:01:06;;;;;;;2.77;1.53;;;;;;;18.99;63.24;100385.31;5030428;28;20210;-72
2023/03/29 13:03:48;;;;;;;1.63;1.40;;;;;;;18.74;64.05;100388.94;5044905;28;20202;-72
2023/03/29 13:06:27;;;;;;;1.50;1.40;;;;;;;18.56;64.56;100386.16;5042960;28;20252;-74
2023/03/29 13:09:03;;;;;;;1.37;1.20;;;;;;;18.52;64.91;100391.59;5047631;28;20993;-71
2023/03/29 13:11:40;;;;;;;2.47;1.60;;;;;;;18.54;65.18;100376.66;5036581;28;20548;-71
2023/03/29 13:14:16;;;;;;;3.27;1.63;;;;;;;18.52;65.21;100371.50;5039733;28;20200;-73
2023/03/29 13:16:41;;;;;;;1.47;1.37;;;;;;;18.53;65.32;100372.31;5048660;28;20189;-72
2023/03/29 13:19:18;;;;;;;1.97;1.60;;;;;;;18.54;65.48;100360.94;5035242;28;20202;-73
2023/03/29 13:21:58;;;;;;;2.17;1.60;;;;;;;18.54;65.78;100356.53;5030374;28;20206;-74
2023/03/29 13:24:42;;;;;;;2.27;1.63;;;;;;;18.53;65.59;100353.97;5051878;28;20624;-73
2023/03/29 13:27:26;;;;;;;2.30;1.50;;;;;;;18.58;65.54;100345.00;5055338;28;20273;-74
2023/03/29 13:29:54;;;;;;;1.93;1.43;;;;;;;18.66;65.26;100347.31;5062939;28;20191;-74
2023/03/29 13:32:28;;;;;;;2.30;1.83;;;;;;;18.69;65.60;100349.81;5044865;28;20202;-74
2023/03/29 13:35:19;;;;;;;1.77;1.43;;;;;;;18.82;66.01;100346.66;5051322;28;20199;-73
2023/03/29 13:37:52;;;;;;;2.10;1.67;;;;;;;18.94;65.97;100346.16;5041005;28;20184;-72
2023/03/29 13:40:33;;;;;;;1.90;1.37;;;;;;;19.02;65.94;100345.84;5034313;28;20928;-73
2023/03/29 13:43:21;;;;;;;2.50;1.33;;;;;;;19.08;66.23;100342.09;5032414;28;20251;-74
2023/03/29 13:45:55;;;;;;;2.50;1.50;;;;;;;19.22;66.01;100331.00;5037738;28;20195;-73
2023/03/29 13:48:32;;;;;;;1.70;1.40;;;;;;;19.41;66.29;100341.53;5049671;28;20213;-73
2023/03/29 13:51:12;;;;;;;2.90;1.80;;;;;;;19.60;66.04;100338.91;5039929;28;20197;-72
2023/03/29 13:53:44;;;;;;;2.70;1.67;;;;;;;19.76;65.83;100336.44;5037873;28;20188;-72
2023/03/29 13:56:17;;;;;;;2.03;1.60;;;;;;;19.88;65.57;100329.81;5038426;28;20214;-72
2023/03/29 13:58:55;;;;;;;1.70;1.60;;;;;;;20.04;65.39;100322.88;5042465;28;20186;-73
2023/03/29 14:01:39;;;;;;;2.13;1.23;;;;;;;20.29;65.10;100324.31;5044541;28;22171;-72
2023/03/29 14:04:11;;;;;;;2.20;1.40;;;;;;;20.58;64.13;100318.53;5048295;28;20336;-73
2023/03/29 14:06:38;;;;;;;1.60;1.50;;;;;;;20.75;63.83;100320.31;5033728;28;20187;-72
2023/03/29 14:09:07;;;;;;;2.23;1.43;;;;;;;20.91;63.48;100312.50;5048275;28;20683;-73
2023/03/29 14:11:33;;;;;;;2.23;1.60;;;;;;;20.95;63.28;100314.06;5042682;28;20917;-71
2023/03/29 14:14:01;;;;;;;2.00;1.57;;;;;;;20.93;63.19;100314.16;5044341;28;20191;-74
2023/03/29 14:16:30;;;;;;;2.60;1.70;;;;;;;20.76;64.47;100308.91;5040396;28;20198;-72
2023/03/29 14:19:01;;;;;;;1.83;1.43;;;;;;;20.57;65.63;100301.91;5041155;28;20184;-73
2023/03/29 14:21:26;;;;;;;2.10;1.80;;;;;;;20.23;66.66;100296.56;5036655;28;20221;-71
2023/03/29 14:24:00;;;;;;;2.73;1.67;;;;;;;19.93;67.42;100283.13;5033203;28;20191;-71
2023/03/29 14:26:31;;;;;;;2.10;1.30;;;;;;;19.85;67.86;100290.50;5029806;28;20738;-72
2023/03/29 14:28:57;;;;;;;1.90;1.43;;;;;;;19.84;67.84;100289.66;5036107;28;20249;-72
2023/03/29 14:31:32;;;;;;;2.43;1.77;;;;;;;19.88;67.82;100285.16;5036124;28;20597;-71
2023/03/29 14:33:59;;;;;;;2.57;1.73;;;;;;;19.88;68.07;100283.38;5036892;28;20178;-72
2023/03/29 14:36:26;;;;;;;1.90;1.70;;;;;;;19.88;67.83;100278.13;5042409;28;20187;-71
2023/03/29 14:38:58;;;;;;;3.97;1.80;;;;;;;19.85;67.83;100275.59;5031175;28;20219;-73
2023/03/29 14:41:29;;;;;;;2.83;1.73;;;;;;;19.96;67.38;100269.88;5039298;28;20215;-72
2023/03/29 14:43:56;;;;;;;2.33;1.47;;;;;;;20.16;66.92;100257.53;5034948;28;20226;-71
2023/03/29 14:46:22;;;;;;;1.53;1.40;;;;;;;20.27;66.55;100257.00;5033777;28;20860;-71
2023/03/29 14:48:48;;;;;;;1.67;1.23;;;;;;;20.15;65.56;100240.91;5035587;28;20193;-70
2023/03/29 14:51:13;;;;;;;2.10;1.50;;;;;;;19.97;65.85;100240.06;5033102;28;20203;-71
2023/03/29 14:53:40;;;;;;;2.10;1.27;;;;;;;19.82;65.96;100240.75;5031484;28;20196;-73
2023/03/29 14:56:12;;;;;;;2.33;1.40;;;;;;;19.58;65.13;100236.63;5042744;28;20194;-71
2023/03/29 14:58:39;;;;;;;2.03;1.70;;;;;;;19.40;64.63;100232.22;5039765;28;20190;-72
2023/03/29 15:01:16;;;;;;;2.53;1.43;;;;;;;19.24;64.15;100234.72;5041304;28;20188;-71
2023/03/29 15:03:43;;;;;;;3.33;1.97;;;;;;;19.14;64.29;100226.41;5042595;28;20305;-72
2023/03/29 15:06:11;;;;;;;2.77;1.83;;;;;;;19.09;64.28;100223.16;5045954;28;20191;-72
2023/03/29 15:08:40;;;;;;;2.40;1.67;;;;;;;19.12;64.08;100213.38;5029754;28;20679;-72
2023/03/29 15:11:16;;;;;;;1.87;1.60;;;;;;;19.13;63.92;100209.84;5035884;28;20610;-72
2023/03/29 15:13:43;;;;;;;1.60;1.43;;;;;;;19.18;63.84;100202.59;5050001;28;20187;-71
2023/03/29 15:16:13;;;;;;;1.77;1.50;;;;;;;19.32;63.78;100201.97;5029234;28;20751;-71
2023/03/29 15:18:41;;;;;;;2.23;1.30;;;;;;;19.42;64.01;100204.13;5030809;28;20603;-72
2023/03/29 15:21:08;;;;;;;1.80;1.30;;;;;;;19.49;63.93;100197.69;5036758;28;20191;-70
2023/03/29 15:23:50;;;;;;;1.80;1.20;;;;;;;19.54;63.78;100200.09;5032875;28;20289;-71
2023/03/29 15:26:25;;;;;;;3.17;1.60;;;;;;;19.56;64.33;100199.09;5037378;28;20218;-72
2023/03/29 15:29:01;;;;;;;2.57;1.50;;;;;;;19.55;64.25;100196.53;5034413;28;20185;-71
2023/03/29 15:31:33;;;;;;;3.50;2.53;;;;;;;19.48;64.11;100201.25;5032083;28;20210;-71
2023/03/29 15:34:07;;;;;;;2.90;1.93;;;;;;;19.41;64.50;100202.44;5031443;28;20546;-71
2023/03/29 15:36:33;;;;;;;3.97;2.47;;;;;;;19.32;64.42;100201.97;5038931;28;20700;-71
2023/03/29 15:38:59;;;;;;;3.77;2.70;;;;;;;19.28;64.66;100191.69;5034962;28;20592;-71
2023/03/29 15:41:26;;;;;;;3.63;2.57;;;;;;;19.27;64.59;100188.19;5041649;28;20208;-71
2023/03/29 15:43:52;;;;;;;3.17;2.30;;;;;;;19.28;64.78;100187.28;5027843;28;21502;-72
2023/03/29 15:46:18;;;;;;;3.73;2.80;;;;;;;19.27;64.92;100177.72;5028657;28;20725;-72
2023/03/29 15:48:43;;;;;;;2.97;2.30;;;;;;;19.24;65.26;100175.22;5029534;28;20194;-72
2023/03/29 15:51:11;;;;;;;2.77;1.80;;;;;;;19.21;64.93;100177.16;5030935;28;20179;-72
2023/03/29 15:53:36;;;;;;;2.00;1.40;;;;;;;19.16;65.57;100172.94;5028446;28;20191;-71
2023/03/29 15:56:05;;;;;;;2.17;1.40;;;;;;;19.11;65.62;100164.47;5029988;28;20248;-72
2023/03/29 15:58:33;;;;;;;1.90;1.53;;;;;;;19.00;66.03;100161.47;5028071;28;20191;-71
2023/03/29 16:01:33;;;;;;;3.90;3.50;;;;;;;18.85;66.42;100157.75;5031791;28;20209;-71
2023/03/29 16:04:19;;;;;;;16.83;14.67;;;;;;;18.71;67.20;100159.25;5027376;28;20294;-72
2023/03/29 16:06:47;;;;;;;29.47;26.13;;;;;;;18.61;67.57;100157.94;5026736;28;20190;-72
2023/03/29 16:09:13;;;;;;;31.07;27.77;;;;;;;18.53;67.77;100150.41;5034479;28;20194;-72
2023/03/29 16:11:40;;;;;;;22.47;20.07;;;;;;;18.45;67.70;100155.16;5033895;28;20218;-71
2023/03/29 16:14:28;;;;;;;14.93;13.43;;;;;;;18.33;68.54;100150.47;5031374;28;20643;-72
2023/03/29 16:16:54;;;;;;;10.60;9.50;;;;;;;18.20;68.58;100160.59;5034027;28;20183;-71
2023/03/29 16:19:20;;;;;;;10.43;7.40;;;;;;;18.07;69.00;100148.03;5031894;28;20194;-72
2023/03/29 16:21:46;;;;;;;8.00;6.20;;;;;;;17.96;69.59;100148.44;5030856;28;20310;-72
2023/03/29 16:24:18;;;;;;;11.47;5.63;;;;;;;17.85;69.41;100145.44;5032162;28;20241;-71
2023/03/29 16:26:44;;;;;;;8.77;4.43;;;;;;;17.76;69.55;100137.97;5035702;28;20195;-72
2023/03/29 16:29:10;;;;;;;5.53;3.63;;;;;;;17.68;69.74;100133.91;5035077;28;20233;-70
2023/03/29 16:31:35;;;;;;;3.97;2.90;;;;;;;17.62;69.76;100133.31;5026989;28;20329;-71
2023/03/29 16:34:01;;;;;;;3.03;2.40;;;;;;;17.50;69.53;100125.03;5029167;28;20297;-70
2023/03/29 16:36:29;;;;;;;3.27;2.07;;;;;;;17.40;69.26;100122.84;5038808;28;20209;-71
2023/03/29 16:38:54;;;;;;;2.53;1.97;;;;;;;17.30;70.00;100122.38;5034276;28;20274;-71
2023/03/29 16:41:20;;;;;;;3.17;1.60;;;;;;;17.21;69.97;100121.81;5033507;28;20215;-71
2023/03/29 16:43:45;;;;;;;2.73;1.77;;;;;;;17.13;69.74;100123.03;5036986;28;20181;-71
2023/03/29 16:46:11;;;;;;;2.00;1.50;;;;;;;17.08;69.55;100120.59;5036919;28;20314;-72
2023/03/29 16:48:37;;;;;;;1.60;1.50;;;;;;;17.06;69.59;100107.56;5030899;28;20195;-71
2023/03/29 16:51:03;;;;;;;1.60;1.47;;;;;;;17.07;69.78;100116.28;5034476;28;20193;-72
2023/03/29 16:53:29;;;;;;;1.60;1.50;;;;;;;17.04;70.46;100119.00;5034786;28;20215;-71
2023/03/29 16:55:55;;;;;;;2.57;1.30;;;;;;;17.01;70.57;100104.31;5036736;28;20200;-72
2023/03/29 16:58:22;;;;;;;2.47;1.63;;;;;;;16.97;70.99;100097.50;5035986;28;20194;-71
2023/03/29 17:00:48;;;;;;;3.53;1.57;;;;;;;16.92;70.89;100107.22;5038106;28;20202;-72
2023/03/29 17:03:14;;;;;;;2.00;1.80;;;;;;;16.86;71.31;100104.88;5030907;28;20335;-72
2023/03/29 17:05:44;;;;;;;1.93;1.80;;;;;;;16.79;71.06;100099.00;5035722;28;20203;-70
2023/03/29 17:08:10;;;;;;;1.80;1.50;;;;;;;16.73;71.00;100101.84;5033430;28;20279;-72
2023/03/29 17:10:35;;;;;;;2.97;1.80;;;;;;;16.69;71.44;100108.09;5036900;28;20282;-71
2023/03/29 17:13:01;;;;;;;3.07;2.20;;;;;;;16.64;72.02;100104.81;5032848;28;20205;-71
2023/03/29 17:15:26;;;;;;;3.47;2.10;;;;;;;16.56;73.55;100094.66;5035683;28;20669;-71
2023/03/29 17:17:51;;;;;;;4.10;2.60;;;;;;;16.48;74.25;100105.38;5031973;28;20239;-72
2023/03/29 17:20:17;;;;;;;6.37;2.90;;;;;;;16.41;74.87;100093.44;5029265;28;20222;-71
2023/03/29 17:22:42;;;;;;;4.10;2.73;;;;;;;16.33;76.47;100085.88;5026545;28;20840;-71
2023/03/29 17:25:08;;;;;;;3.57;2.60;;;;;;;16.25;76.59;100093.16;5028328;28;20202;-71
2023/03/29 17:27:36;;;;;;;6.20;2.90;;;;;;;16.17;77.25;100087.34;5047324;28;20191;-72
2023/03/29 17:30:02;;;;;;;4.63;2.50;;;;;;;16.06;78.10;100088.56;5046164;28;20214;-70
2023/03/29 17:32:28;;;;;;;3.27;2.30;;;;;;;15.97;78.36;100081.06;5045453;28;20313;-72
2023/03/29 17:34:53;;;;;;;3.33;1.63;;;;;;;15.89;78.36;100083.09;5042385;28;20711;-72
2023/03/29 17:37:22;;;;;;;2.97;2.17;;;;;;;15.79;78.53;100088.59;5050647;28;20672;-72
2023/03/29 17:39:48;;;;;;;4.37;2.13;;;;;;;15.71;79.38;100087.97;5055756;28;20189;-71
2023/03/29 17:42:15;;;;;;;3.13;2.10;;;;;;;15.64;79.80;100095.16;5039828;28;20214;-71
2023/03/29 17:44:40;;;;;;;2.37;2.03;;;;;;;15.57;80.52;100093.69;5043991;28;20341;-71
2023/03/29 17:47:05;;;;;;;4.53;2.43;;;;;;;15.52;81.03;100095.56;5040215;28;20194;-71
2023/03/29 17:49:31;;;;;;;3.53;2.23;;;;;;;15.47;81.50;100081.81;5036403;28;20710;-71
2023/03/29 17:51:56;;;;;;;2.37;2.03;;;;;;;15.42;82.08;100088.97;5053937;28;20245;-71
2023/03/29 17:54:21;;;;;;;3.67;2.27;;;;;;;15.36;82.89;100090.84;5032410;28;20214;-72
2023/03/29 17:56:47;;;;;;;3.20;2.33;;;;;;;15.31;83.85;100081.47;5032162;28;20180;-70
2023/03/29 17:59:13;;;;;;;4.50;2.50;;;;;;;15.21;85.18;100081.75;5033943;28;20194;-71
2023/03/29 18:01:38;;;;;;;3.37;1.90;;;;;;;15.13;84.67;100075.94;5036848;28;20756;-72
2023/03/29 18:04:03;;;;;;;3.97;2.13;;;;;;;15.04;84.38;100065.81;5037440;28;20271;-70
2023/03/29 18:06:29;;;;;;;4.43;2.27;;;;;;;14.97;84.15;100067.75;5036077;28;20222;-71
2023/03/29 18:08:55;;;;;;;2.60;2.00;;;;;;;14.90;84.41;100067.06;5040816;28;20182;-71
2023/03/29 18:11:22;;;;;;;2.57;2.00;;;;;;;14.87;84.46;100066.31;5034356;28;20233;-71
2023/03/29 18:13:52;;;;;;;3.93;2.30;;;;;;;14.82;84.32;100063.00;5037055;28;20184;-71
2023/03/29 18:16:18;;;;;;;3.87;2.03;;;;;;;14.77;84.52;100061.38;5035652;28;20195;-71
2023/03/29 18:18:45;;;;;;;2.40;1.90;;;;;;;14.76;85.30;100077.03;5045741;28;20184;-72
2023/03/29 18:21:11;;;;;;;3.53;2.23;;;;;;;14.72;85.44;100076.28;5042887;28;20214;-71
2023/03/29 18:23:38;;;;;;;5.40;1.93;;;;;;;14.69;85.71;100083.34;5037043;28;20215;-71
2023/03/29 18:26:06;;;;;;;2.50;2.07;;;;;;;14.66;86.22;100073.84;5031649;28;20194;-72
2023/03/29 18:28:32;;;;;;;4.73;2.53;;;;;;;14.60;87.33;100081.84;5036879;28;20973;-70
2023/03/29 18:30:58;;;;;;;2.90;2.47;;;;;;;14.55;87.70;100075.91;5045003;28;20233;-71
2023/03/29 18:33:23;;;;;;;3.50;2.30;;;;;;;14.53;88.25;100075.09;5046631;28;20190;-71
2023/03/29 18:35:50;;;;;;;3.23;2.73;;;;;;;14.53;89.22;100062.94;5042580;28;20210;-72
2023/03/29 18:38:21;;;;;;;3.93;2.80;;;;;;;14.52;89.42;100070.81;5038782;28;20218;-72
2023/03/29 18:40:47;;;;;;;2.87;2.63;;;;;;;14.46;89.82;100075.28;5045479;28;20273;-71
2023/03/29 18:43:13;;;;;;;3.50;2.40;;;;;;;14.41;90.64;100079.75;5044155;28;20215;-71
2023/03/29 18:45:38;;;;;;;2.40;2.20;;;;;;;14.38;91.48;100079.00;5040376;28;20344;-72
2023/03/29 18:48:06;;;;;;;3.20;2.00;;;;;;;14.32;92.35;100074.81;5030661;28;20183;-72
2023/03/29 18:50:35;;;;;;;3.47;2.23;;;;;;;14.26;92.35;100086.25;5039967;28;20222;-71
2023/03/29 18:53:00;;;;;;;2.43;2.10;;;;;;;14.22;93.18;100089.81;5042413;28;20221;-70
2023/03/29 18:55:27;;;;;;;2.23;2.03;;;;;;;14.20;93.77;100088.16;5049523;28;20662;-71
2023/03/29 18:57:52;;;;;;;2.60;2.00;;;;;;;14.15;93.77;100083.94;5041480;28;20738;-71
2023/03/29 19:00:17;;;;;;;4.97;2.10;;;;;;;14.14;93.81;100086.59;5046522;28;20187;-71
2023/03/29 19:02:43;;;;;;;5.03;2.17;;;;;;;14.10;93.72;100079.75;5043798;28;20219;-72
2023/03/29 19:05:08;;;;;;;2.97;2.40;;;;;;;14.09;93.99;100076.28;5036124;28;20199;-71
2023/03/29 19:07:34;;;;;;;2.70;1.83;;;;;;;14.07;93.99;100079.84;5043618;28;20191;-71
2023/03/29 19:10:01;;;;;;;2.43;2.10;;;;;;;14.03;93.96;100071.25;5044060;28;20754;-71
2023/03/29 19:12:27;;;;;;;2.83;2.10;;;;;;;14.00;94.13;100072.19;5043634;28;20225;-71
2023/03/29 19:14:53;;;;;;;3.37;2.30;;;;;;;13.95;94.19;100061.06;5044788;28;20943;-72
2023/03/29 19:17:19;;;;;;;3.27;2.33;;;;;;;13.92;94.26;100060.25;5039603;28;20197;-71
2023/03/29 19:19:45;;;;;;;7.13;3.00;;;;;;;13.87;94.35;100056.06;5044822;28;20742;-71
2023/03/29 19:22:10;;;;;;;3.87;2.80;;;;;;;13.84;94.72;100047.50;5039917;28;20207;-72
2023/03/29 19:24:35;;;;;;;3.30;2.33;;;;;;;13.79;94.69;100041.53;5040095;28;20186;-71
2023/03/29 19:27:01;;;;;;;5.13;2.80;;;;;;;13.76;94.97;100039.00;5034527;28;20265;-71
2023/03/29 19:29:26;;;;;;;4.10;2.77;;;;;;;13.69;94.95;100046.97;5058033;28;20290;-71
2023/03/29 19:31:53;;;;;;;3.70;2.90;;;;;;;13.67;95.03;100050.50;5041094;28;20230;-71
2023/03/29 19:34:21;;;;;;;4.77;3.17;;;;;;;13.61;94.95;100038.53;5064129;28;20192;-71
2023/03/29 19:36:47;;;;;;;3.10;2.80;;;;;;;13.57;94.93;100039.47;5040982;28;20193;-71
2023/03/29 19:39:12;;;;;;;2.60;2.40;;;;;;;13.55;94.80;100026.53;5044851;28;20182;-71
2023/03/29 19:41:37;;;;;;;3.93;2.80;;;;;;;13.55;95.12;100028.25;5037405;28;20719;-71
2023/03/29 19:44:04;;;;;;;3.07;2.53;;;;;;;13.54;95.45;100030.03;5034570;28;20340;-71
2023/03/29 19:46:30;;;;;;;4.13;2.63;;;;;;;13.53;96.20;100027.47;5030171;28;20194;-71